Time;durP1;ratioP1;P1;durP2;ratioP2;P2;SDS_P1;SDS_P2;PMS_P1;PMS_P2;Temp;Humidity;BMP_temperature;BMP_pressure;BME280_temperature;BME280_humidity;BME280_pressure;Samples;Min_cycle;Max_cycle;Signal;HPM_P1;HPM_P2
2023/04/20 00:01:22;;;;;;;4.83;1.33;;;;;;;-142.75;76.18;78602.28;5012217;28;20053;-67
2023/04/20 00:03:48;;;;;;;4.63;1.87;;;;;;;-142.75;76.22;78602.28;5011608;28;20374;-69
2023/04/20 00:06:14;;;;;;;7.77;2.20;;;;;;;-142.75;76.13;78590.47;5011993;28;20495;-66
2023/04/20 00:08:39;;;;;;;6.90;1.50;;;;;;;-142.75;75.67;78600.31;5012078;28;20029;-67
2023/04/20 00:11:05;;;;;;;4.20;1.70;;;;;;;-142.75;76.08;78598.34;5011796;28;20534;-67
2023/04/20 00:13:30;;;;;;;4.83;1.70;;;;;;;-142.75;76.70;78610.16;5011579;28;20101;-67
2023/04/20 00:15:55;;;;;;;7.37;1.70;;;;;;;-142.75;76.15;78602.28;5010789;28;20486;-67
2023/04/20 00:18:21;;;;;;;2.87;1.57;;;;;;;-142.75;76.28;78602.28;5011983;28;20034;-66
2023/04/20 00:20:46;;;;;;;;;;;;;;;-142.75;76.65;78602.28;5012152;28;20121;-68
2023/04/20 00:23:11;;;;;;;6.67;1.73;;;;;;;-142.75;76.42;78588.50;5011482;28;20012;-68
2023/04/20 00:25:36;;;;;;;5.60;1.73;;;;;;;-142.75;77.58;78606.22;5010477;28;20026;-67
2023/04/20 00:28:02;;;;;;;;;;;;;;;-142.75;78.21;78604.25;5012094;28;20068;-68
2023/04/20 00:30:27;;;;;;;6.20;1.90;;;;;;;-142.75;78.74;78602.28;5011467;28;19956;-67
2023/04/20 00:32:52;;;;;;;;;;;;;;;-142.75;79.14;78606.22;5011694;28;20445;-67
2023/04/20 00:35:17;;;;;;;;;;;;;;;-142.75;79.55;78612.13;5012314;28;20297;-69
2023/04/20 00:37:43;;;;;;;;;;;;;;;-142.75;79.83;78620.00;5010324;28;20514;-67
2023/04/20 00:40:08;;;;;;;;;;;;;;;-142.75;79.64;78618.03;4991065;28;20382;-67
2023/04/20 00:42:34;;;;;;;;;;;;;;;-142.75;79.50;78623.94;4976296;28;20366;-65
2023/04/20 00:44:59;;;;;;;;;;;;;;;-142.75;79.14;78620.00;5026298;28;20015;-67
2023/04/20 00:47:24;;;;;;;;;;;;;;;-142.75;79.17;78620.00;5030916;28;20491;-69
2023/04/20 00:49:50;;;;;;;;;;;;;;;-142.75;79.51;78614.09;4994559;28;20325;-68
2023/04/20 00:52:16;;;;;;;;;;;;;;;-142.75;80.26;78625.91;5011599;28;19916;-67
2023/04/20 00:54:41;;;;;;;;;;;;;;;-142.75;80.50;78621.97;5012530;28;20060;-67
2023/04/20 00:57:06;;;;;;;;;;;;;;;-142.75;81.01;78633.78;5010815;28;20275;-67
2023/04/20 00:59:31;;;;;;;;;;;;;;;-142.75;81.80;78645.59;5010201;28;20320;-68
2023/04/20 01:01:57;;;;;;;;;;;;;;;-142.75;82.14;78633.78;5010140;28;20370;-68
2023/04/20 01:04:23;;;;;;;;;;;;;;;-142.75;82.51;78625.91;5010527;28;19910;-67
2023/04/20 01:06:48;;;;;;;;;;;;;;;-142.75;83.16;78631.81;5012444;28;20267;-67
2023/04/20 01:09:13;;;;;;;;;;;;;;;-142.75;84.11;78641.66;5011652;28;20259;-67
2023/04/20 01:11:38;;;;;;;;;;;;;;;-142.75;85.62;78639.69;5011857;28;20370;-67
2023/04/20 01:14:04;;;;;;;;;;;;;;;-142.75;86.94;78645.59;4993793;28;19960;-67
2023/04/20 01:16:29;;;;;;;;;;;;;;;-142.75;88.71;78637.72;5011782;28;19916;-67
2023/04/20 01:18:55;;;;;;;;;;;;;;;-142.75;88.56;78610.16;5011484;28;19909;-67
2023/04/20 01:21:21;;;;;;;;;;;;;;;-142.75;88.13;78590.47;5011794;28;19909;-67
2023/04/20 01:23:46;;;;;;;;;;;;;;;-142.75;88.18;78598.34;5009631;28;19909;-67
2023/04/20 01:26:13;;;;;;;;;;;;;;;-142.75;88.29;78584.56;5011671;28;19920;-67
2023/04/20 01:28:39;;;;;;;;;;;;;;;-142.75;88.13;78568.78;5011667;28;19916;-68
2023/04/20 01:31:05;;;;;;;;;;;;;;;-142.75;88.30;78558.94;5011697;28;20445;-67
2023/04/20 01:33:30;;;;;;;;;;;;;;;-142.75;88.51;78560.91;5009943;28;20008;-67
2023/04/20 01:35:55;;;;;;;;;;;;;;;-142.75;88.30;78553.03;4994166;28;20353;-67
2023/04/20 01:38:21;;;;;;;;;;;;;;;-142.75;89.11;78556.97;5011737;28;19953;-66
2023/04/20 01:40:47;;;;;;;;;;;;;;;-142.75;88.67;78549.09;5014490;28;20398;-66
2023/04/20 01:43:12;;;;;;;;;;;;;;;-142.75;88.85;78539.25;5014763;28;20040;-67
2023/04/20 01:45:37;;;;;;;;;;;;;;;-142.75;88.66;78539.25;5013955;28;19909;-67
2023/04/20 01:48:02;;;;;;;;;;;;;;;-142.75;88.12;78535.31;5015137;28;20429;-66
2023/04/20 01:50:28;;;;;;;;;;;;;;;-142.75;87.65;78535.31;5015095;28;19992;-67
2023/04/20 01:52:53;;;;;;;;;;;;;;;-142.75;87.71;78531.38;5014620;28;20636;-67
2023/04/20 01:55:18;;;;;;;;;;;;;;;-142.75;87.81;78511.69;5014915;28;20008;-67
2023/04/20 01:57:43;;;;;;;;;;;;;;;-142.75;87.74;78511.69;5013663;28;19910;-67
2023/04/20 02:00:09;;;;;;;;;;;;;;;-142.75;88.06;78519.56;5013392;28;19913;-67
2023/04/20 02:02:35;;;;;;;;;;;;;;;-142.75;87.85;78511.69;5014223;28;19910;-67
2023/04/20 02:05:00;;;;;;;;;;;;;;;-142.75;88.13;78521.53;5014496;28;19920;-67
2023/04/20 02:07:25;;;;;;;;;;;;;;;-142.75;88.51;78515.63;4997182;28;20000;-67
2023/04/20 02:09:51;;;;;;;;;;;;;;;-142.75;88.79;78523.50;5014446;28;19972;-66
2023/04/20 02:12:16;;;;;;;;;;;;;;;-142.75;88.98;78523.50;5014312;28;20106;-67
2023/04/20 02:14:41;;;;;;;;;;;;;;;-142.75;89.24;78531.38;5014210;28;19913;-66
2023/04/20 02:17:06;;;;;;;;;;;;;;;-142.75;89.13;78523.50;5014727;28;19909;-66
2023/04/20 02:19:32;;;;;;;;;;;;;;;-142.75;89.21;78505.78;5014422;28;19909;-67
2023/04/20 02:21:57;;;;;;;;;;;;;;;-142.75;90.29;78509.72;5013260;28;19913;-65
2023/04/20 02:24:22;;;;;;;;;;;;;;;-142.75;90.37;78505.78;5012772;28;19913;-67
2023/04/20 02:26:47;;;;;;;;;;;;;;;-142.75;89.97;78503.81;5012999;28;19913;-67
2023/04/20 02:29:13;;;;;;;;;;;;;;;-142.75;90.56;78499.88;5012848;28;19909;-67
2023/04/20 02:31:38;;;;;;;;;;;;;;;-142.75;90.92;78499.88;5013791;28;19967;-67
2023/04/20 02:34:05;;;;;;;;;;;;;;;-142.75;91.16;78503.81;5013815;28;19982;-67
2023/04/20 02:36:30;;;;;;;;;;;;;;;-142.75;92.02;78507.75;5014177;28;19909;-67
2023/04/20 02:38:55;;;;;;;;;;;;;;;-142.75;92.47;78503.81;5013960;28;19909;-67
2023/04/20 02:41:20;;;;;;;;;;;;;;;-142.75;95.64;78539.25;5013881;28;19913;-67
2023/04/20 02:43:45;;;;;;;;;;;;;;;-142.75;100.00;78515.63;5012319;28;19909;-67
2023/04/20 02:46:11;;;;;;;;;;;;;;;-142.75;100.00;78545.16;5013991;28;20294;-67
2023/04/20 02:48:36;;;;;;;;;;;;;;;-142.75;100.00;78531.38;5013890;28;20271;-67
2023/04/20 02:51:01;;;;;;;;;;;;;;;-142.75;100.00;78519.56;4996357;28;19916;-67
2023/04/20 02:53:26;;;;;;;;;;;;;;;-142.75;97.27;78517.59;5011989;28;19909;-66
2023/04/20 02:55:52;;;;;;;;;;;;;;;-142.75;98.45;78545.16;5013642;28;19913;-67
2023/04/20 02:58:17;;;;;;;;;;;;;;;-142.75;99.50;78541.22;5012471;28;19919;-65
2023/04/20 03:00:42;;;;;;;;;;;;;;;-142.75;100.00;78533.34;5013812;28;19909;-66
2023/04/20 03:03:08;;;;;;;;;;;;;;;-142.75;100.00;78539.25;5013232;28;19996;-66
2023/04/20 03:05:33;;;;;;;;;;;;;;;-142.75;100.00;78531.38;5013491;28;19917;-67
2023/04/20 03:07:59;;;;;;;;;;;;;;;-142.75;100.00;78531.38;5013403;28;19913;-66
2023/04/20 03:10:24;;;;;;;;;;;;;;;-142.75;100.00;78527.44;5012205;28;20286;-67
2023/04/20 03:12:49;;;;;;;;;;;;;;;-142.75;100.00;78523.50;5013004;28;20370;-67
2023/04/20 03:15:15;;;;;;;;;;;;;;;-142.75;100.00;78519.56;5012163;28;19913;-66
2023/04/20 03:17:41;;;;;;;;;;;;;;;-142.75;100.00;78503.81;5013292;28;19956;-67
2023/04/20 03:20:07;;;;;;;;;;;;;;;-142.75;100.00;78495.94;4995717;28;19909;-67
2023/04/20 03:22:33;;;;;;;;;;;;;;;-142.75;100.00;78484.09;5013040;28;19909;-67
2023/04/20 03:24:58;;;;;;;;;;;;;;;-142.75;100.00;78476.22;5013199;28;19943;-66
2023/04/20 03:27:23;;;;;;;;;;;;;;;-142.75;100.00;78472.28;5013156;28;20301;-66
2023/04/20 03:29:49;;;;;;;;;;;;;;;-142.75;100.00;78472.28;5013282;28;19920;-67
2023/04/20 03:32:14;;;;;;;;;;;;;;;-142.75;100.00;78474.25;5012846;28;19909;-64
2023/04/20 03:34:39;;;;;;;;;;;;;;;-142.75;100.00;78476.22;5013177;28;20321;-67
2023/04/20 03:37:05;;;;;;;;;;;;;;;-142.75;100.00;78464.41;5011881;28;19910;-67
2023/04/20 03:39:30;;;;;;;;;;;;;;;-142.75;100.00;78458.50;5012505;28;20279;-66
2023/04/20 03:41:56;;;;;;;;;;;;;;;-142.75;100.00;78444.72;5012206;28;20028;-67
2023/04/20 03:44:21;;;;;;;;;;;;;;;-142.75;100.00;78430.94;5012620;28;19967;-67
2023/04/20 03:46:46;;;;;;;;;;;;;;;-142.75;100.00;78430.94;5012896;28;20389;-66
2023/04/20 03:49:12;;;;;;;;;;;;;;;-142.75;100.00;78425.03;5012895;28;20055;-66
2023/04/20 03:51:37;;;;;;;;;;;;;;;-142.75;100.00;78423.06;5012732;28;19909;-67
2023/04/20 03:54:02;;;;;;;;;;;;;;;-142.75;100.00;78409.28;5012331;28;19967;-67
2023/04/20 03:56:27;;;;;;;;;;;;;;;-142.75;100.00;78393.50;5009213;28;19919;-67
2023/04/20 03:58:53;;;;;;;;;;;;;;;-142.75;100.00;78385.63;5009432;28;19961;-67
2023/04/20 04:01:18;;;;;;;;;;;;;;;-142.75;100.00;78379.72;5012325;28;20063;-67
2023/04/20 04:03:43;;;;;;;;;;;;;;;-142.75;100.00;78375.78;4993923;28;19916;-67
2023/04/20 04:06:09;;;;;;;;;;;;;;;-142.75;100.00;78381.69;5012375;28;19917;-67
2023/04/20 04:08:34;;;;;;;;;;;;;;;-142.75;100.00;78363.97;5012025;28;19963;-67
2023/04/20 04:10:59;;;;;;;;;;;;;;;-142.75;100.00;78342.31;4991391;28;20338;-67
2023/04/20 04:13:24;;;;;;;;;;;;;;;-142.75;100.00;78334.44;4992330;28;19909;-67
2023/04/20 04:15:50;;;;;;;;;;;;;;;-142.75;100.00;78326.56;4992559;28;20008;-67
2023/04/20 04:18:15;;;;;;;;;;;;;;;-142.75;100.00;78346.25;4992398;28;19944;-67
2023/04/20 04:20:40;;;;;;;;;;;;;;;-142.75;100.00;78328.53;4992633;28;20020;-67
2023/04/20 04:23:05;;;;;;;;;;;;;;;-142.75;100.00;78310.81;4992520;28;19909;-67
2023/04/20 04:25:31;;;;;;;;;;;;;;;-142.75;100.00;78314.75;4992903;28;19910;-67
2023/04/20 04:27:56;;;;;;;;;;;;;;;-142.75;100.00;78316.72;5007876;28;19925;-67
2023/04/20 04:30:22;;;;;;;;;;;;;;;-142.75;100.00;78318.69;4992974;28;20294;-67
2023/04/20 04:32:49;;;;;;;;;;;;;;;-142.75;100.00;78306.88;4992316;28;19952;-67
2023/04/20 04:35:14;;;;;;;;;;;;;;;-142.75;100.00;78299.00;4992593;28;19914;-66
2023/04/20 04:37:40;;;;;;;;;;;;;;;-142.75;100.00;78297.00;5007524;28;19909;-67
2023/04/20 04:40:08;;;;;;;;;;;;;;;-142.75;100.00;78289.13;4992554;28;20478;-67
2023/04/20 04:42:33;;;;;;;;;;;;;;;-142.75;100.00;78275.34;4992148;28;19913;-67
2023/04/20 04:45:00;;;;;;;;;;;;;;;-142.75;100.00;78279.28;5007678;28;19921;-67
2023/04/20 04:47:28;;;;;;;;;;;;;;;-142.75;100.00;78265.50;5007667;28;19910;-66
2023/04/20 04:49:54;;;;;;;;;;;;;;;-142.75;100.00;78261.56;5007516;28;19964;-67
2023/04/20 04:52:19;;;;;;;;;;;;;;;-142.75;100.00;78255.66;4993508;28;19949;-67
2023/04/20 04:54:45;;;;;;;;;;;;;;;-142.75;100.00;78251.72;4994061;28;20396;-67
2023/04/20 04:57:10;;;;;;;;;;;;;;;-142.75;100.00;78239.91;5011843;28;20285;-67
2023/04/20 04:59:35;;;;;;;;;;;;;;;-142.75;100.00;78247.78;5011986;28;19910;-67
2023/04/20 05:02:01;;;;;;;;;;;;;;;-142.75;100.00;78239.91;5011804;28;19959;-67
2023/04/20 05:04:26;;;;;;;;;;;;;;;-142.75;100.00;78226.13;5011379;28;20016;-66
2023/04/20 05:06:51;;;;;;;;;;;;;;;-142.75;100.00;78222.19;5011742;28;19944;-66
2023/04/20 05:09:16;;;;;;;;;;;;;;;-142.75;100.00;78212.34;5011877;28;19929;-67
2023/04/20 05:11:41;;;;;;;;;;;;;;;-142.75;100.00;78192.66;5011762;28;19967;-67
2023/04/20 05:14:07;;;;;;;;;;;;;;;-142.75;100.00;78204.47;5011872;28;19921;-65
2023/04/20 05:16:32;;;;;;;;;;;;;;;-142.75;100.00;78194.63;5013824;28;19913;-65
2023/04/20 05:18:57;;;;;;;;;;;;;;;-142.75;100.00;78188.72;5014088;28;20290;-67
2023/04/20 05:21:22;;;;;;;;;;;;;;;-142.75;100.00;78184.78;5014226;28;20294;-65
2023/04/20 05:23:48;;;;;;;;;;;;;;;-142.75;100.00;78180.81;5014541;28;19916;-67
2023/04/20 05:26:13;;;;;;;;;;;;;;;-142.75;100.00;78176.88;5014586;28;19955;-67
2023/04/20 05:28:38;;;;;;;;;;;;;;;-142.75;100.00;78159.16;5014870;28;19913;-67
2023/04/20 05:31:03;;;;;;;;;;;;;;;-142.75;100.00;78153.25;5014700;28;19921;-67
2023/04/20 05:33:29;;;;;;;;;;;;;;;-142.75;100.00;78145.38;5014415;28;19913;-67
2023/04/20 05:35:55;;;;;;;;;;;;;;;-142.75;100.00;78145.38;5008999;28;19913;-67
2023/04/20 05:38:20;;;;;;;;;;;;;;;-142.75;100.00;78141.44;4995739;28;19920;-67
2023/04/20 05:40:46;;;;;;;;;;;;;;;-142.75;100.00;78139.47;4978199;28;19909;-67
2023/04/20 05:43:11;;;;;;;;;;;;;;;-142.75;100.00;78123.72;4995262;28;19917;-67
2023/04/20 05:45:36;;;;;;;;;;;;;;;-142.75;100.00;78109.94;4995626;28;19914;-67
2023/04/20 05:48:01;;;;;;;;;;;;;;;-142.75;100.00;78098.13;5002024;28;19920;-68
2023/04/20 05:50:26;;;;;;;;;;;;;;;-142.75;100.00;78098.13;5015185;28;19940;-67
2023/04/20 05:52:52;;;;;;;;;;;;;;;-142.75;100.00;78098.13;5014510;28;19909;-67
2023/04/20 05:55:18;;;;;;;;;;;;;;;-142.75;100.00;78096.16;5013719;28;19920;-66
2023/04/20 05:57:43;;;;;;;;;;;;;;;-142.75;100.00;78100.09;5014636;28;19909;-65
2023/04/20 06:00:10;;;;;;;;;;;;;;;-142.75;100.00;78088.28;5014598;28;19917;-67
2023/04/20 06:02:35;;;;;;;;;;;;;;;-142.75;100.00;78109.94;5012375;28;19914;-67
2023/04/20 06:05:01;;;;;;;;;;;;;;;-142.75;100.00;78115.84;4996235;28;20290;-67
2023/04/20 06:07:26;;;;;;;;;;;;;;;-142.75;100.00;78109.94;5013944;28;19913;-67
2023/04/20 06:09:51;;;;;;;;;;;;;;;-142.75;100.00;78111.91;5014660;28;19909;-67
2023/04/20 06:12:16;;;;;;;;;;;;;;;-142.75;100.00;78107.97;4996532;28;19964;-65
2023/04/20 06:14:41;;;;;;;;;;;;;;;-142.75;100.00;78113.88;4997003;28;19913;-67
2023/04/20 06:17:07;;;;;;;;;;;;;;;-142.75;100.00;78121.75;5014545;28;19917;-67
2023/04/20 06:19:32;;;;;;;;;;;;;;;-142.75;100.00;78141.44;5014556;28;19944;-67
2023/04/20 06:21:57;;;;;;;;;;;;;;;-142.75;100.00;78137.50;5013161;28;19909;-67
2023/04/20 06:24:23;;;;;;;;;;;;;;;-142.75;100.00;78129.63;5012895;28;19909;-67
2023/04/20 06:26:48;;;;;;;;;;;;;;;-142.75;100.00;78137.50;5013814;28;19947;-67
2023/04/20 06:29:13;;;;;;;;;;;;;;;-142.75;100.00;78129.63;5014142;28;19910;-67
2023/04/20 06:31:38;;;;;;;;;;;;;;;-142.75;100.00;78131.59;5013963;28;20370;-67
2023/04/20 06:34:03;;;;;;;;;;;;;;;-142.75;100.00;78123.72;5013720;28;20390;-67
2023/04/20 06:36:30;;;;;;;;;;;;;;;-142.75;100.00;78129.63;5014031;28;20390;-66
2023/04/20 06:38:55;;;;;;;;;;;;;;;-142.75;100.00;78119.78;5014820;28;20366;-67
2023/04/20 06:41:20;;;;;;;;;;;;;;;-142.75;100.00;78109.94;5013965;28;19916;-67
2023/04/20 06:43:45;;;;;;;;;;;;;;;-142.75;100.00;78117.81;5013650;28;19909;-67
2023/04/20 06:46:10;;;;;;;;;;;;;;;-142.75;100.00;78109.94;5013995;28;19909;-69
2023/04/20 06:48:36;;;;;;;;;;;;;;;-142.75;100.00;78106.00;5014075;28;20496;-68
2023/04/20 06:51:01;;;;;;;;;;;;;;;-142.75;100.00;78082.38;5013557;28;20409;-68
2023/04/20 06:53:26;;;;;;;;;;;;;;;-142.75;100.00;78082.38;5013262;28;19916;-68
2023/04/20 06:55:54;;;;;;;;;;;;;;;-142.75;100.00;78090.25;5013838;28;19913;-68
2023/04/20 06:58:19;;;;;;;;;;;;;;;-142.75;100.00;78094.19;5013594;28;20000;-68
2023/04/20 07:00:46;;;;;;;;;;;;;;;-142.75;100.00;78088.28;4995857;28;20412;-67
2023/04/20 07:03:11;;;;;;;;;;;;;;;-142.75;100.00;78084.34;4995554;28;20003;-65
2023/04/20 07:05:36;;;;;;;;;;;;;;;-142.75;100.00;78078.44;5012573;28;19956;-65
2023/04/20 07:08:02;;;;;;;;;;;;;;;-142.75;100.00;78074.50;5013997;28;19917;-66
2023/04/20 07:10:27;;;;;;;;;;;;;;;-142.75;100.00;78088.28;5013242;28;19909;-66
2023/04/20 07:12:52;;;;;;;;;;;;;;;-142.75;100.00;78094.19;4992465;28;19913;-68
2023/04/20 07:15:17;;;;;;;;;;;;;;;-142.75;100.00;78113.88;5012786;28;19925;-63
2023/04/20 07:17:42;;;;;;;;;;;;;;;-142.75;100.00;78102.06;5013235;28;19917;-68
2023/04/20 07:20:08;;;;;;;;;;;;;;;-142.75;100.00;78137.50;5013175;28;19909;-65
2023/04/20 07:22:35;;;;;;;;;;;;;;;-142.75;100.00;78141.44;5008296;28;19920;-66
2023/04/20 07:25:01;;;;;;;;;;;;;;;-142.75;100.00;78137.50;4993683;28;19910;-66
2023/04/20 07:27:28;;;;;;;;;;;;;;;-142.75;100.00;78151.28;5008379;28;19914;-66
2023/04/20 07:29:53;;;;;;;;;;;;;;;-142.75;100.00;78161.13;4993500;28;19949;-66
2023/04/20 07:32:19;;;;;;;;;;;;;;;-142.75;100.00;78176.88;4992226;28;19955;-66
2023/04/20 07:34:44;;;;;;;;;;;;;;;-142.75;100.00;78176.88;4991496;28;19924;-67
2023/04/20 07:37:11;;;;;;;;;;;;;;;-142.75;100.00;78184.78;5006025;28;19994;-66
2023/04/20 07:39:36;;;;;;;;;;;;;;;-142.75;100.00;78180.81;4993351;28;19957;-66
2023/04/20 07:42:02;;;;;;;;;;;;;;;-142.75;100.00;78184.78;4993219;28;19917;-66
2023/04/20 07:44:28;;;;;;;;;;;;;;;-142.75;100.00;78196.59;4993164;28;19909;-64
2023/04/20 07:46:54;;;;;;;;;;;;;;;-142.75;100.00;78212.34;4993279;28;19917;-66
2023/04/20 07:49:19;;;;;;;;;;;;;;;-142.75;100.00;78220.22;4993206;28;19913;-66
2023/04/20 07:51:44;;;;;;;;;;;;;;;-142.75;100.00;78210.38;5007826;28;20386;-67
2023/04/20 07:54:10;;;;;;;;;;;;;;;-142.75;100.00;78186.75;4993969;28;19921;-64
2023/04/20 07:56:35;;;;;;;;;;;;;;;-142.75;100.00;78230.06;5009775;28;20294;-66
2023/04/20 07:59:00;;;;;;;;;;;;;;;-142.75;100.00;78230.06;5012096;28;20349;-65
2023/04/20 08:01:26;;;;;;;;;;;;;;;-142.75;100.00;78241.88;5011956;28;19920;-66
2023/04/20 08:03:53;;;;;;;;;;;;;;;-142.75;100.00;78251.72;5011974;28;19909;-67
2023/04/20 08:06:18;;;;;;;;;;;;;;;-142.75;100.00;78263.53;5012322;28;19916;-65
2023/04/20 08:08:44;;;;;;;;;;;;;;;-142.75;100.00;78263.53;5008863;28;19913;-66
2023/04/20 08:11:09;;;;;;;;;;;;;;;-142.75;100.00;78263.53;5012161;28;19909;-64
2023/04/20 08:13:36;;;;;;;;;;;;;;;-142.75;100.00;78265.50;5011354;28;19914;-65
2023/04/20 08:16:01;;;;;;;;;;;;;;;-142.75;100.00;78237.94;5012083;28;19913;-66
2023/04/20 08:18:26;;;;;;;;;;;;;;;-142.75;100.00;78232.03;5012026;28;19916;-66
2023/04/20 08:20:51;;;;;;;;;;;;;;;-142.75;100.00;78257.63;5010483;28;19917;-66
2023/04/20 08:23:16;;;;;;;;;;;;;;;-142.75;100.00;78226.13;5009749;28;19916;-66
2023/04/20 08:25:42;;;;;;;;;;;;;;;-142.75;100.00;78237.94;4991587;28;19962;-64
2023/04/20 08:28:07;;;;;;;;;;;;;;;-142.75;100.00;78220.22;5011814;28;19910;-65
2023/04/20 08:30:32;;;;;;;;;;;;;;;-142.75;100.00;78216.28;5004304;28;19909;-65
2023/04/20 08:32:57;;;;;;;;;;;;;;;-142.75;100.00;78218.25;5011390;28;20298;-67
2023/04/20 08:35:23;;;;;;;;;;;;;;;-142.75;100.00;78220.22;5005915;28;19920;-66
2023/04/20 08:37:48;;;;;;;;;;;;;;;-142.75;100.00;78224.16;5008206;28;20012;-65
2023/04/20 08:40:14;;;;;;;;;;;;;;;-142.75;100.00;78202.50;4995126;28;20392;-66
2023/04/20 08:42:39;;;;;;;;;;;;;;;-142.75;100.00;78204.47;4991817;28;19917;-66
2023/04/20 08:45:05;;;;;;;;;;;;;;;-142.75;100.00;78202.50;4993918;28;20016;-64
2023/04/20 08:47:31;;;;;;;;;;;;;;;-142.75;100.00;78220.22;5011566;28;19909;-66
2023/04/20 08:49:58;;;;;;;;;;;;;;;-142.75;100.00;78232.03;5015182;28;20028;-65
2023/04/20 08:52:23;;;;;;;;;;;;;;;-142.75;100.00;78214.31;5013201;28;19909;-65
2023/04/20 08:54:49;;;;;;;;;;;;;;;-142.75;100.00;78198.56;5015622;28;19921;-67
2023/04/20 08:57:14;;;;;;;;;;;;;;;-142.75;100.00;78202.50;5000781;28;19910;-67
2023/04/20 08:59:39;;;;;;;;;;;;;;;-142.75;100.00;78196.59;4996433;28;19917;-67
2023/04/20 09:02:10;;;;;;;;;;;;;;;-142.75;100.00;78163.09;4996317;28;20459;-65
2023/04/20 09:04:35;;;;;;;;;;;;;;;-142.75;100.00;78161.13;4996092;28;20386;-66
2023/04/20 09:07:01;;;;;;;;;;;;;;;-142.75;100.00;78188.72;4996320;28;19959;-66
2023/04/20 09:09:27;;;;;;;;;;;;;;;-142.75;100.00;78186.75;4985740;28;19920;-66
2023/04/20 09:12:06;;;;;;;;;;;;;;;-142.75;100.00;78180.81;5028328;28;19988;-66
2023/04/20 09:14:41;;;;;;;;;;;;;;;-142.75;100.00;78176.88;5013930;28;19917;-66
2023/04/20 09:17:06;;;;;;;;;;;;;;;-142.75;100.00;78157.19;5015519;28;19921;-65
2023/04/20 09:19:31;;;;;;;;;;;;;;;-142.75;100.00;78141.44;5015551;28;19920;-64
2023/04/20 09:21:58;;;;;;;;;;;;;;;-142.75;100.00;78090.25;5015657;28;19909;-65
2023/04/20 09:24:30;;;;;;;;;;;;;;;-142.75;100.00;78121.75;5015224;28;20256;-65
2023/04/20 09:26:55;;;;;;;;;;;;;;;-142.75;100.00;78133.56;5015343;28;19917;-65
2023/04/20 09:29:22;;;;;;;;;;;;;;;-142.75;100.00;78123.72;5014045;28;20006;-65
2023/04/20 09:31:47;;;;;;;;;;;;;;;-142.75;100.00;78133.56;5015300;28;19913;-65
2023/04/20 09:34:13;;;;;;;;;;;;;;;-142.75;100.00;78131.59;4997518;28;19975;-64
2023/04/20 09:36:43;;;;;;;;;;;;;;;-142.75;100.00;78121.75;5011472;28;19917;-66
2023/04/20 09:39:09;;;;;;;;;;;;;;;-142.75;100.00;78111.91;5007539;28;19914;-66
2023/04/20 09:41:35;;;;;;;;;;;;;;;-142.75;100.00;78115.84;5014065;28;19909;-66
2023/04/20 09:44:01;;;;;;;;;;;;;;;-142.75;100.00;78092.22;5014829;28;20263;-63
2023/04/20 09:46:30;;;;;;;;;;;;;;;-142.75;100.00;78092.22;5014568;28;19921;-66
2023/04/20 09:48:56;;;;;;;;;;;;;;;-142.75;100.00;78084.34;5029985;28;19910;-66
2023/04/20 09:51:21;;;;;;;;;;;;;;;-142.75;100.00;78086.31;5014577;28;19909;-66
2023/04/20 09:53:47;;;;;;;;;;;;;;;-142.75;100.00;78070.56;5014178;28;19917;-66
2023/04/20 09:56:13;;;;;;;;;;;;;;;-142.75;100.00;78080.41;5013581;28;19913;-66
2023/04/20 09:58:38;;;;;;;;;;;;;;;-142.75;100.00;78062.69;5014611;28;19953;-65
2023/04/20 10:01:07;;;;;;;;;;;;;;;-142.75;100.00;78021.31;5013967;28;19917;-66
2023/04/20 10:03:32;;;;;;;;;;;;;;;-142.75;100.00;78037.06;5013981;28;19913;-66
2023/04/20 10:05:58;;;;;;;;;;;;;;;-142.75;100.00;78068.59;5014837;28;19913;-66
2023/04/20 10:08:23;;;;;;;;;;;;;;;-142.75;100.00;78050.84;5014365;28;19925;-65
2023/04/20 10:10:49;;;;;;;;;;;;;;;-142.75;100.00;78060.72;5013816;28;20404;-65
2023/04/20 10:13:18;;;;;;;;;;;;;;;-142.75;100.00;78046.91;5013709;28;20318;-64
2023/04/20 10:15:43;;;;;;;;;;;;;;;-142.75;100.00;78015.41;4996620;28;20302;-65
2023/04/20 10:18:16;;;;;;;;;;;;;;;-142.75;100.00;77991.78;5013151;28;19914;-66
2023/04/20 10:20:41;;;;;;;;;;;;;;;-142.75;100.00;77979.97;5013347;28;19956;-66
2023/04/20 10:23:08;;;;;;;;;;;;;;;-142.75;100.00;77911.06;5013873;28;19913;-66
2023/04/20 10:25:33;;;;;;;;;;;;;;;-142.75;100.00;77818.50;5013469;28;19909;-67
2023/04/20 10:28:00;;;;;;;;;;;;;;;-142.75;100.00;77806.69;5013952;28;20679;-67
2023/04/20 10:30:26;;;;;;;;;;;;;;;-142.75;100.00;77806.69;5009374;28;19995;-67
2023/04/20 10:33:10;;;;;;;;;;;;;;;-142.75;100.00;77881.50;5013012;28;19953;-66
2023/04/20 10:35:53;;;;;;;;;;;;;;;-142.75;100.00;77926.81;5014217;28;19925;-66
2023/04/20 10:38:31;;;;;;;;;;;;;;;-142.75;100.00;77899.22;5012608;28;19916;-66
2023/04/20 10:41:10;;;;;;;;;;;;;;;-142.75;100.00;77899.22;5014075;28;19909;-67
2023/04/20 10:43:37;;;;;;;;;;;;;;;-142.75;100.00;77905.13;4995847;28;20379;-66
2023/04/20 10:46:11;;;;;;;;;;;;;;;-142.75;100.00;77887.41;5014072;28;19936;-66
2023/04/20 10:48:36;;;;;;;;;;;;;;;-142.75;100.00;77873.63;5013602;28;19936;-67
2023/04/20 10:51:09;;;;;;;;;;;;;;;-142.75;100.00;77838.19;5012180;28;19917;-66
2023/04/20 10:53:34;;;;;;;;;;;;;;;-142.75;100.00;77769.28;5011799;28;19949;-65
2023/04/20 10:55:59;;;;;;;;;;;;;;;-142.75;100.00;77763.38;5013109;28;19967;-67
2023/04/20 10:58:25;;;;;;;;;;;;;;;-142.75;100.00;77810.63;5010816;28;20373;-67
2023/04/20 11:01:00;;;;;;;;;;;;;;;-142.75;100.00;77824.41;5012190;28;19909;-67
2023/04/20 11:03:29;;;;;;;;;;;;;;;-142.75;100.00;77826.38;5012343;28;19932;-67
2023/04/20 11:05:56;;;;;;;;;;;;;;;-142.75;100.00;77889.38;5013143;28;19918;-66
2023/04/20 11:08:21;;;;;;;;;;;;;;;-142.75;100.00;77885.44;5011933;28;19909;-63
2023/04/20 11:10:47;;;;;;;;;;;;;;;-142.75;100.00;77928.78;5013056;28;19972;-65
2023/04/20 11:13:19;;;;;;;;;;;;;;;-142.75;100.00;77903.16;4993176;28;20301;-66
2023/04/20 11:15:45;;;;;;;;;;;;;;;-142.75;100.00;77877.56;5013060;28;19956;-67
2023/04/20 11:18:10;;;;;;;;;;;;;;;-142.75;100.00;77934.69;5013353;28;19910;-67
2023/04/20 11:20:36;;;;;;;;;;;;;;;-142.75;100.00;77920.91;5013375;28;20318;-67
2023/04/20 11:23:03;;;;;;;;;;;;;;;-142.75;100.00;77869.69;5013170;28;19909;-66
2023/04/20 11:25:29;;;;;;;;;;;;;;;-142.75;100.00;77798.81;5013324;28;19913;-67
2023/04/20 11:28:03;;;;;;;;;;;;;;;-142.75;100.00;77804.72;4995617;28;20370;-66
2023/04/20 11:30:36;;;;;;;;;;;;;;;-142.75;100.00;77771.25;4995534;28;19941;-66
2023/04/20 11:33:02;;;;;;;;;;;;;;;-142.75;100.00;77802.75;5012974;28;20000;-67
2023/04/20 11:35:34;;;;;;;;;;;;;;;-142.75;100.00;77822.44;5013161;28;20375;-66
2023/04/20 11:37:59;;;;;;;;;;;;;;;-142.75;100.00;77749.59;4995635;28;19913;-66
2023/04/20 11:40:24;;;;;;;;;;;;;;;-142.75;100.00;77668.84;5013127;28;20462;-66
2023/04/20 11:42:50;;;;;;;;;;;;;;;-142.75;100.00;77633.41;5012431;28;19991;-66
2023/04/20 11:45:16;;;;;;;;;;;;;;;-142.75;100.00;77635.38;5011778;28;19909;-65
2023/04/20 11:47:42;;;;;;;;;;;;;;;-142.75;100.00;77523.16;4995379;28;19910;-66
2023/04/20 11:50:09;;;;;;;;;;;;;;;-142.75;100.00;77460.13;5012942;28;20434;-66
2023/04/20 11:52:34;;;;;;;;;;;;;;;-142.75;100.00;77436.50;5012591;28;20378;-66
2023/04/20 11:54:59;;;;;;;;;;;;;;;-142.75;100.00;77408.94;5012785;28;19922;-66
2023/04/20 11:57:25;;;;;;;;;;;;;;;-142.75;100.00;77408.94;5012746;28;20004;-66
2023/04/20 11:59:50;;;;;;;;;;;;;;;-142.75;100.00;77497.56;4994822;28;19968;-67
2023/04/20 12:02:15;;;;;;;;;;;;;;;-142.75;100.00;77515.28;5012379;28;19924;-63
2023/04/20 12:04:41;;;;;;;;;;;;;;;-142.75;100.00;77511.34;5012534;28;20389;-66
2023/04/20 12:07:06;;;;;;;;;;;;;;;-142.75;100.00;77495.59;4995091;28;19909;-67
2023/04/20 12:09:36;;;;;;;;;;;;;;;-142.75;100.00;77460.13;5011346;28;20301;-66